Time;durP1;ratioP1;P1;durP2;ratioP2;P2;SDS_P1;SDS_P2;PMS_P1;PMS_P2;Temp;Humidity;BMP_temperature;BMP_pressure;BME280_temperature;BME280_humidity;BME280_pressure;Samples;Min_cycle;Max_cycle;Signal;HPM_P1;HPM_P2
2022/08/27 00:01:29;;;;;;;;;2.00;2.00;;;;;22.90;77.10;101374.94;5061183;28;45695;-79
2022/08/27 00:03:55;;;;;;;;;2.75;2.75;;;;;22.87;76.69;101367.91;5059358;28;45430;-78
2022/08/27 00:06:22;;;;;;;;;2.25;1.50;;;;;22.89;76.72;101374.09;5058764;28;45335;-77
2022/08/27 00:08:49;;;;;;;;;1.00;1.00;;;;;22.90;76.76;101378.47;5058980;28;45514;-79
2022/08/27 00:11:17;;;;;;;;;2.00;2.00;;;;;22.92;76.80;101370.56;5058109;28;45264;-78
2022/08/27 00:13:42;;;;;;;;;1.25;1.25;;;;;22.91;76.69;101368.81;5058144;28;45173;-79
2022/08/27 00:16:10;;;;;;;;;4.50;1.00;;;;;22.89;77.59;101368.81;5057752;28;45221;-79
2022/08/27 00:18:37;;;;;;;;;2.00;1.50;;;;;22.83;76.94;101360.84;5040443;28;45393;-78
2022/08/27 00:21:03;;;;;;;;;1.00;1.00;;;;;22.83;77.22;101360.84;5057806;28;45705;-78
2022/08/27 00:23:30;;;;;;;;;2.00;2.00;;;;;22.83;76.83;101361.75;5058286;28;45722;-78
2022/08/27 00:25:56;;;;;;;;;3.00;2.00;;;;;22.82;77.30;101372.28;5061376;28;45338;-78
2022/08/27 00:28:21;;;;;;;;;3.00;2.00;;;;;22.79;77.32;101367.88;5057685;28;45227;-76
2022/08/27 00:30:47;;;;;;;;;2.00;2.00;;;;;22.75;77.36;101374.03;5058162;28;45409;-77
2022/08/27 00:33:13;;;;;;;;;3.00;3.00;;;;;22.73;77.78;101367.88;5053509;28;45276;-78
2022/08/27 00:35:39;;;;;;;;;3.25;1.75;;;;;22.72;77.67;101372.25;5057959;28;45259;-78
2022/08/27 00:38:05;;;;;;;;;3.00;3.00;;;;;22.73;77.95;101362.59;5057905;28;45214;-79
2022/08/27 00:40:32;;;;;;;;;2.00;2.00;;;;;22.70;78.20;101368.72;5057522;28;45399;-79
2022/08/27 00:43:01;;;;;;;;;2.25;2.25;;;;;22.66;77.95;101368.72;5057918;28;45713;-77
2022/08/27 00:45:30;;;;;;;;;3.00;2.00;;;;;22.64;78.25;101368.72;5057603;28;45350;-79
2022/08/27 00:47:59;;;;;;;;;1.25;1.25;;;;;22.67;78.19;101373.13;5057817;28;45516;-78
2022/08/27 00:50:35;;;;;;;;;1.00;1.00;;;;;22.67;78.70;101376.66;5058757;28;46129;-77
2022/08/27 00:53:06;;;;;;;;;1.00;1.00;;;;;22.67;78.42;101370.47;5060353;28;46025;-78
2022/08/27 00:55:55;;;;;;;;;2.00;2.00;;;;;22.67;78.48;101373.13;5057731;28;45318;-79
2022/08/27 00:58:32;;;;;;;;;2.75;2.75;;;;;22.68;78.20;101370.47;5062119;28;45572;-75
2022/08/27 01:00:59;;;;;;;;;2.00;1.00;;;;;22.66;78.75;101361.69;5057707;28;45468;-77
2022/08/27 01:03:26;;;;;;;;;2.50;2.00;;;;;22.66;78.80;101366.06;5057912;28;45735;-78
2022/08/27 01:05:55;;;;;;;;;1.50;0.50;;;;;22.65;78.36;101364.31;5057305;28;45457;-78
2022/08/27 01:08:25;;;;;;;;;2.00;2.00;;;;;22.65;78.29;101366.94;5057652;28;45546;-78
2022/08/27 01:10:52;;;;;;;;;4.00;2.00;;;;;22.65;78.95;101365.22;5057453;28;45488;-79
2022/08/27 01:13:22;;;;;;;;;2.00;1.00;;;;;22.66;78.90;101369.63;5039109;28;45446;-79
2022/08/27 01:15:48;;;;;;;;;2.00;2.00;;;;;22.69;78.49;101374.00;5057774;28;45341;-78
2022/08/27 01:18:15;;;;;;;;;1.00;1.00;;;;;22.70;78.60;101373.16;5045221;28;45652;-79
2022/08/27 01:20:49;;;;;;;;;2.00;2.00;;;;;22.72;78.69;101374.91;5060848;28;45569;-78
2022/08/27 01:23:18;;;;;;;;;2.00;1.25;;;;;22.74;78.64;101374.91;5057370;28;45483;-79
2022/08/27 01:25:44;;;;;;;;;1.25;1.25;;;;;22.74;78.70;101369.63;5057301;28;45362;-79
2022/08/27 01:28:12;;;;;;;;;2.00;2.00;;;;;22.73;77.92;101375.81;5057045;28;45451;-79
2022/08/27 01:30:39;;;;;;;;;1.25;1.25;;;;;22.69;79.28;101369.59;5056558;28;46025;-79
2022/08/27 01:33:14;;;;;;;;;3.25;1.75;;;;;22.65;78.73;101359.94;5056363;28;45455;-79
2022/08/27 01:35:44;;;;;;;;;3.00;2.00;;;;;22.65;78.94;101359.03;5057086;28;45401;-79
2022/08/27 01:38:10;;;;;;;;;1.00;1.00;;;;;22.67;78.89;101359.91;5056981;28;45214;-79
2022/08/27 01:40:36;;;;;;;;;2.00;2.00;;;;;22.67;78.96;101359.91;5056862;28;46013;-79
2022/08/27 01:43:03;;;;;;;;;1.25;1.25;;;;;22.65;78.67;101359.03;5057123;28;45724;-76
2022/08/27 01:45:32;;;;;;;;;1.00;1.00;;;;;22.64;78.96;101358.16;5058159;28;45263;-75
2022/08/27 01:47:59;;;;;;;;;2.00;2.00;;;;;22.65;78.55;101362.56;5056407;28;45392;-76
2022/08/27 01:50:28;;;;;;;;;1.25;1.25;;;;;22.64;78.55;101352.88;5056441;28;45990;-76
2022/08/27 01:52:55;;;;;;;;;1.50;1.25;;;;;22.64;78.90;101359.91;5056473;28;45272;-75
2022/08/27 01:55:24;;;;;;;;;3.25;1.50;;;;;22.64;78.73;101359.91;5056633;28;45322;-76
2022/08/27 01:57:50;;;;;;;;;3.00;1.75;;;;;22.66;78.92;101355.50;5057031;28;45485;-77
2022/08/27 02:00:20;;;;;;;;;3.00;1.25;;;;;22.68;78.56;101359.91;5056158;28;46164;-77
2022/08/27 02:02:47;;;;;;;;;1.50;1.00;;;;;22.68;78.31;101357.28;5056398;28;45463;-78
2022/08/27 02:05:13;;;;;;;;;2.00;1.00;;;;;22.64;78.67;101360.81;5054973;28;45497;-78
2022/08/27 02:07:38;;;;;;;;;1.00;1.00;;;;;22.64;78.49;101352.88;5056623;28;45517;-78
2022/08/27 02:10:07;;;;;;;;;1.25;1.25;;;;;22.65;78.47;101354.66;5057938;28;45581;-79
2022/08/27 02:12:33;;;;;;;;;4.00;2.00;;;;;22.67;78.55;101352.00;5041394;28;45457;-79
2022/08/27 02:14:58;;;;;;;;;3.75;2.75;;;;;22.69;78.22;101352.91;5056959;28;45310;-75
2022/08/27 02:17:24;;;;;;;;;2.25;2.25;;;;;22.67;78.27;101347.63;5056703;28;45325;-78
2022/08/27 02:19:50;;;;;;;;;2.00;2.00;;;;;22.71;78.25;101351.16;5056487;28;45658;-79
2022/08/27 02:22:15;;;;;;;;;2.00;1.00;;;;;22.70;78.14;101344.09;5056051;28;45407;-78
2022/08/27 02:24:41;;;;;;;;;1.00;1.00;;;;;22.69;78.02;101351.13;5056272;28;45320;-78
2022/08/27 02:27:07;;;;;;;;;1.00;1.00;;;;;22.73;78.40;101358.19;5055667;28;45607;-78
2022/08/27 02:29:33;;;;;;;;;3.00;1.25;;;;;22.75;78.16;101349.41;5055990;28;45404;-79
2022/08/27 02:32:00;;;;;;;;;1.00;1.00;;;;;22.77;77.84;101355.56;5054507;28;45473;-77
2022/08/27 02:34:27;;;;;;;;;1.00;1.00;;;;;22.74;77.87;101359.06;5055905;28;45342;-77
2022/08/27 02:36:53;;;;;;;;;3.50;2.00;;;;;22.73;77.89;101352.91;5060922;28;45458;-77
2022/08/27 02:39:19;;;;;;;;;2.00;2.00;;;;;22.77;77.64;101358.22;5058730;28;45701;-78
2022/08/27 02:41:45;;;;;;;;;1.00;1.00;;;;;22.79;77.59;101353.78;5054580;28;45674;-78
2022/08/27 02:44:11;;;;;;;;;3.75;2.50;;;;;22.81;77.53;101354.69;5039260;28;45415;-78
2022/08/27 02:46:38;;;;;;;;;1.00;0.00;;;;;22.80;77.71;101353.81;5059644;28;45423;-77
2022/08/27 02:49:04;;;;;;;;;2.75;2.00;;;;;22.80;77.31;101347.63;5058915;28;46161;-76
2022/08/27 02:51:30;;;;;;;;;1.25;1.25;;;;;22.76;77.86;101352.03;5059503;28;45565;-78
2022/08/27 02:53:56;;;;;;;;;2.75;2.00;;;;;22.75;77.71;101337.06;5059551;28;45331;-78
2022/08/27 02:56:22;;;;;;;;;3.00;1.00;;;;;22.77;77.66;101345.00;5059930;28;45368;-78
2022/08/27 02:58:48;;;;;;;;;1.50;1.50;;;;;22.77;77.11;101331.81;5059544;28;45346;-77
2022/08/27 03:01:14;;;;;;;;;1.00;1.00;;;;;22.77;77.26;101342.38;5057655;28;45735;-76
2022/08/27 03:03:40;;;;;;;;;2.00;2.00;;;;;22.73;77.69;101333.56;5062301;28;45448;-78
2022/08/27 03:06:07;;;;;;;;;2.00;2.00;;;;;22.72;77.60;101339.72;5061793;28;45532;-78
2022/08/27 03:08:32;;;;;;;;;3.25;2.00;;;;;22.69;77.89;101326.50;5041115;28;45868;-79
2022/08/27 03:10:58;;;;;;;;;2.25;2.00;;;;;22.65;78.01;101327.34;5059190;28;45325;-78
2022/08/27 03:13:24;;;;;;;;;4.00;2.00;;;;;22.56;78.06;101323.81;5059558;28;45365;-77
2022/08/27 03:15:51;;;;;;;;;3.00;1.75;;;;;22.51;78.82;101329.97;5059673;28;45324;-77
2022/08/27 03:18:17;;;;;;;;;1.00;1.00;;;;;22.44;78.56;101331.69;5058603;28;45279;-78
2022/08/27 03:20:45;;;;;;;;;2.00;2.00;;;;;22.42;79.68;101329.06;5059288;28;45257;-76
2022/08/27 03:23:13;;;;;;;;;1.00;1.00;;;;;22.41;79.30;101329.94;5058885;28;45299;-79
2022/08/27 03:25:50;;;;;;;;;3.00;2.00;;;;;22.40;79.39;101333.44;5058983;28;45539;-79
2022/08/27 03:28:16;;;;;;;;;5.25;2.00;;;;;22.40;79.30;101328.16;5059779;28;45219;-78
2022/08/27 03:30:44;;;;;;;;;2.00;2.00;;;;;22.37;79.58;101328.09;5062736;28;45185;-79
2022/08/27 03:33:11;;;;;;;;;2.00;2.00;;;;;22.36;79.39;101331.63;5061227;28;45503;-79
2022/08/27 03:35:36;;;;;;;;;2.75;2.75;;;;;22.32;79.79;101335.13;5059783;28;45526;-78
2022/08/27 03:38:02;;;;;;;;;2.50;2.00;;;;;22.30;79.81;101336.00;5058397;28;45967;-77
2022/08/27 03:40:28;;;;;;;;;3.00;2.00;;;;;22.28;80.07;101338.63;5058714;28;45634;-77
2022/08/27 03:42:54;;;;;;;;;1.50;1.50;;;;;22.21;79.94;101334.22;5057876;28;45355;-78
2022/08/27 03:45:20;;;;;;;;;3.00;2.00;;;;;22.20;80.26;101335.94;5058915;28;45551;-78
2022/08/27 03:47:45;;;;;;;;;2.00;2.00;;;;;22.17;80.30;101329.78;5040328;28;45464;-78
2022/08/27 03:50:11;;;;;;;;;3.00;2.00;;;;;22.13;80.31;101328.88;5058201;28;45316;-78
2022/08/27 03:52:37;;;;;;;;;2.00;2.00;;;;;22.07;79.84;101331.50;5057435;28;45469;-78
2022/08/27 03:55:05;;;;;;;;;1.00;1.00;;;;;21.97;81.19;101327.91;5059056;28;45520;-78
2022/08/27 03:57:32;;;;;;;;;1.50;1.50;;;;;21.97;81.39;101329.69;5065056;28;46635;-79
2022/08/27 03:59:57;;;;;;;;;1.00;1.00;;;;;21.94;81.51;101325.25;5059455;28;45317;-78
2022/08/27 04:02:23;;;;;;;;;2.50;2.50;;;;;21.91;81.87;101333.16;5058586;28;45414;-78
2022/08/27 04:04:48;;;;;;;;;1.50;1.50;;;;;21.88;81.46;101333.13;5058546;28;45366;-78
2022/08/27 04:07:15;;;;;;;;;3.75;2.75;;;;;21.84;81.75;101333.97;5057932;28;46340;-79
2022/08/27 04:09:41;;;;;;;;;3.25;3.00;;;;;21.77;82.51;101330.41;5058210;28;45638;-77
2022/08/27 04:12:07;;;;;;;;;4.00;2.00;;;;;21.76;82.91;101329.56;5057428;28;45677;-76
2022/08/27 04:14:33;;;;;;;;;2.00;2.00;;;;;21.73;82.72;101329.53;5058495;28;45482;-79
2022/08/27 04:16:59;;;;;;;;;2.00;1.25;;;;;21.74;82.72;101327.78;5057258;28;46524;-75
2022/08/27 04:19:29;;;;;;;;;1.75;1.75;;;;;21.73;83.44;101326.03;5058608;28;45275;-78
2022/08/27 04:21:59;;;;;;;;;2.75;2.00;;;;;21.73;83.56;101323.38;5059167;28;45437;-77
2022/08/27 04:24:25;;;;;;;;;2.00;1.25;;;;;21.73;83.39;101328.66;5061423;28;45491;-76
2022/08/27 04:26:51;;;;;;;;;2.25;2.25;;;;;21.74;82.96;101323.38;5058790;28;46221;-78
2022/08/27 04:29:16;;;;;;;;;4.50;2.00;;;;;21.75;83.41;101327.78;5057743;28;45406;-78
2022/08/27 04:31:42;;;;;;;;;2.25;2.25;;;;;21.78;83.29;101325.19;5058162;28;45512;-77
2022/08/27 04:34:08;;;;;;;;;1.75;1.75;;;;;21.76;83.12;101321.66;5057977;28;45569;-75
2022/08/27 04:36:33;;;;;;;;;2.00;2.00;;;;;21.76;82.75;101315.47;5057789;28;46197;-75
2022/08/27 04:38:59;;;;;;;;;2.00;2.00;;;;;21.73;83.18;101318.97;5057513;28;45454;-74
2022/08/27 04:41:26;;;;;;;;;2.00;2.00;;;;;21.67;83.50;101312.78;5058322;28;45358;-76
2022/08/27 04:43:57;;;;;;;;;5.00;3.00;;;;;21.65;83.87;101316.28;5058313;28;45482;-75
2022/08/27 04:46:29;;;;;;;;;3.25;3.00;;;;;21.61;84.04;101319.78;5057974;28;46070;-75
2022/08/27 04:48:57;;;;;;;;;2.25;2.00;;;;;21.56;84.38;101313.56;5057872;28;45187;-75
2022/08/27 04:51:23;;;;;;;;;3.25;3.00;;;;;21.51;85.22;101317.94;5060582;28;45345;-75
2022/08/27 04:53:49;;;;;;;;;5.00;2.00;;;;;21.43;85.26;101309.09;5058186;28;45374;-76
2022/08/27 04:56:16;;;;;;;;;1.00;0.00;;;;;21.37;85.52;101309.91;5057312;28;46159;-76
2022/08/27 04:58:43;;;;;;;;;4.00;3.50;;;;;21.36;86.00;101315.16;5057718;28;45283;-76
2022/08/27 05:01:15;;;;;;;;;4.00;2.50;;;;;21.33;86.07;101309.00;5057249;28;45318;-76
2022/08/27 05:03:41;;;;;;;;;2.00;2.00;;;;;21.32;86.37;101311.63;5056784;28;45370;-77
2022/08/27 05:06:06;;;;;;;;;2.25;2.25;;;;;21.33;86.15;101316.03;5037809;28;47487;-76
2022/08/27 05:08:33;;;;;;;;;3.00;2.00;;;;;21.29;86.30;101320.38;5056012;28;45356;-76
2022/08/27 05:10:59;;;;;;;;;5.25;3.75;;;;;21.25;86.34;101321.22;5057312;28;45366;-74
2022/08/27 05:13:25;;;;;;;;;2.00;2.00;;;;;21.24;86.62;101327.34;5058048;28;45560;-76
2022/08/27 05:16:00;;;;;;;;;2.00;2.00;;;;;21.26;86.12;101319.47;5058563;28;45614;-76
2022/08/27 05:18:25;;;;;;;;;1.50;1.50;;;;;21.27;86.70;101324.75;5061042;28;45286;-76
2022/08/27 05:20:51;;;;;;;;;2.00;2.00;;;;;21.29;86.99;101323.03;5057501;28;45447;-77
2022/08/27 05:23:19;;;;;;;;;3.00;3.00;;;;;21.36;86.43;101328.31;5057314;28;45299;-77
2022/08/27 05:25:47;;;;;;;;;5.50;3.00;;;;;21.35;86.32;101327.47;5056933;28;45386;-76
2022/08/27 05:28:14;;;;;;;;;3.25;3.25;;;;;21.37;86.73;101335.38;5056682;28;45256;-77
2022/08/27 05:30:43;;;;;;;;;3.75;2.50;;;;;21.44;86.20;101337.16;5057128;28;45225;-76
2022/08/27 05:33:12;;;;;;;;;1.00;1.00;;;;;21.47;85.61;101340.75;5057168;28;45506;-77
2022/08/27 05:35:47;;;;;;;;;1.00;1.00;;;;;21.46;85.38;101335.44;5056937;28;45416;-76
2022/08/27 05:38:13;;;;;;;;;4.50;3.50;;;;;21.48;85.11;101344.25;5056803;28;45807;-75
2022/08/27 05:40:39;;;;;;;;;3.25;2.75;;;;;21.48;84.90;101342.50;5057568;28;45182;-76
2022/08/27 05:43:05;;;;;;;;;4.00;3.00;;;;;21.52;84.80;101345.13;5058142;28;46127;-76
2022/08/27 05:45:32;;;;;;;;;3.75;3.00;;;;;21.55;85.03;101346.03;5059975;28;46145;-76
2022/08/27 05:47:58;;;;;;;;;3.00;3.00;;;;;21.56;84.36;101353.06;5056542;28;45864;-76
2022/08/27 05:50:25;;;;;;;;;2.50;2.00;;;;;21.50;84.18;101346.00;5057210;28;45330;-76
2022/08/27 05:52:51;;;;;;;;;3.00;2.00;;;;;21.49;84.28;101348.63;5055242;28;45559;-76
2022/08/27 05:55:19;;;;;;;;;4.00;2.50;;;;;21.50;83.95;101350.41;5055883;28;46139;-75
2022/08/27 05:57:44;;;;;;;;;5.00;2.25;;;;;21.49;83.97;101343.38;5056549;28;45346;-76
2022/08/27 06:02:55;;;;;;;;;4.00;3.50;;;;;21.43;84.42;101349.47;5057172;28;45213;-77
2022/08/27 06:05:20;;;;;;;;;2.00;2.00;;;;;21.36;84.79;101346.75;5056071;28;46040;-76
2022/08/27 06:07:47;;;;;;;;;4.50;3.00;;;;;21.36;84.59;101352.94;5056611;28;45398;-76
2022/08/27 06:10:13;;;;;;;;;2.75;2.75;;;;;21.34;84.72;101344.13;5039915;28;45840;-76
2022/08/27 06:12:38;;;;;;;;;2.00;1.00;;;;;21.33;84.92;101337.09;5057225;28;45334;-76
2022/08/27 06:15:04;;;;;;;;;4.00;2.50;;;;;21.28;85.47;101336.16;5056040;28;46393;-76
2022/08/27 06:17:30;;;;;;;;;5.00;3.00;;;;;21.29;85.50;101333.56;5040541;28;45434;-75
2022/08/27 06:19:56;;;;;;;;;3.75;2.25;;;;;21.25;85.92;101344.91;5054770;28;45434;-75
2022/08/27 06:22:22;;;;;;;;;4.00;3.00;;;;;21.29;85.73;101341.47;5055568;28;45558;-72
2022/08/27 06:24:47;;;;;;;;;6.75;4.50;;;;;21.33;86.09;101342.38;5054730;28;45324;-76
2022/08/27 06:27:15;;;;;;;;;3.50;3.50;;;;;21.37;85.20;101345.91;5054430;28;45349;-77
2022/08/27 06:29:42;;;;;;;;;3.25;3.25;;;;;21.36;85.80;101345.03;5058220;28;45444;-79
2022/08/27 06:32:08;;;;;;;;;2.75;2.75;;;;;21.36;86.39;101346.75;5063139;28;45564;-81
2022/08/27 06:34:34;;;;;;;;;2.00;2.00;;;;;21.35;85.67;101359.06;5056305;28;45457;-77
2022/08/27 06:37:00;;;;;;;;;2.75;2.25;;;;;21.32;85.64;101352.03;5058744;28;46735;-76
2022/08/27 06:39:25;;;;;;;;;2.50;2.00;;;;;21.41;85.21;101355.59;5056714;28;45833;-79
2022/08/27 06:41:51;;;;;;;;;3.25;3.25;;;;;21.42;84.82;101358.25;5055623;28;45525;-82
2022/08/27 06:44:17;;;;;;;;;5.00;3.50;;;;;21.42;85.49;101360.88;5066454;28;45217;-79
2022/08/27 06:46:43;;;;;;;;;5.25;3.75;;;;;21.39;85.32;101354.69;5054823;28;45407;-81
2022/08/27 06:49:10;;;;;;;;;4.00;4.00;;;;;21.40;85.80;101364.38;5044390;28;45486;-82
2022/08/27 06:51:38;;;;;;;;;4.00;2.75;;;;;21.47;85.11;101358.28;5056652;28;45501;-80
2022/08/27 06:54:07;;;;;;;;;4.75;4.00;;;;;21.54;84.84;101365.38;5045801;28;45936;-84
2022/08/27 06:56:33;;;;;;;;;5.00;4.25;;;;;21.49;85.94;101362.69;5056294;28;45330;-83
2022/08/27 06:59:01;;;;;;;;;4.00;4.00;;;;;21.59;84.62;101362.81;5055769;28;45316;-79
2022/08/27 07:01:30;;;;;;;;;5.50;2.75;;;;;21.60;84.64;101365.44;5061409;28;45426;-79
2022/08/27 07:03:57;;;;;;;;;8.00;3.00;;;;;21.62;84.25;101368.09;5054712;28;45543;-83
2022/08/27 07:06:26;;;;;;;;;4.50;4.50;;;;;21.70;84.17;101376.06;5054591;28;45593;-81
2022/08/27 07:08:51;;;;;;;;;5.00;3.00;;;;;21.73;84.26;101376.09;5053432;28;45539;-81
2022/08/27 07:11:20;;;;;;;;;4.25;4.25;;;;;21.76;84.31;101373.47;5054244;28;45917;-79
2022/08/27 07:13:47;;;;;;;;;4.50;4.50;;;;;21.80;84.23;101378.78;5054251;28;46365;-78
2022/08/27 07:16:18;;;;;;;;;5.75;4.75;;;;;21.86;84.34;101384.97;5054042;28;45746;-80
2022/08/27 07:18:45;;;;;;;;;3.75;3.50;;;;;21.90;84.17;101381.50;5017462;28;45501;-78
2022/08/27 07:21:11;;;;;;;;;3.00;3.00;;;;;21.95;84.26;101382.38;5052400;28;45611;-79
2022/08/27 07:23:38;;;;;;;;;3.00;3.00;;;;;22.00;83.91;101383.31;5037078;28;45989;-79
2022/08/27 07:26:12;;;;;;;;;2.75;2.00;;;;;22.04;83.78;101379.81;5054883;28;45226;-78
2022/08/27 07:28:39;;;;;;;;;6.25;3.75;;;;;22.11;83.58;101379.00;5065126;28;45461;-79
2022/08/27 07:31:07;;;;;;;;;5.00;4.00;;;;;22.15;82.90;101379.00;5070441;28;45447;-76
2022/08/27 07:33:34;;;;;;;;;7.50;4.75;;;;;22.16;82.48;101371.09;5066571;28;45607;-80
2022/08/27 07:36:00;;;;;;;;;5.75;4.75;;;;;22.17;82.26;101372.88;5061656;28;45426;-80
2022/08/27 07:38:26;;;;;;;;;5.50;5.50;;;;;22.24;82.73;101379.94;5059744;28;45417;-82
2022/08/27 07:40:52;;;;;;;;;9.00;4.00;;;;;22.23;82.50;101380.81;5024694;28;45214;-85
2022/08/27 07:46:02;;;;;;;;;6.75;5.50;;;;;22.29;82.01;101381.72;5059081;28;45645;-90
2022/08/27 07:48:28;;;;;;;;;6.00;5.00;;;;;22.30;81.96;101384.38;5060952;28;45457;-87
2022/08/27 07:50:54;;;;;;;;;7.75;5.00;;;;;22.31;82.77;101383.50;5060681;28;45565;-81
2022/08/27 07:53:20;;;;;;;;;5.50;5.00;;;;;22.40;82.53;101387.94;5059377;28;46623;-83
2022/08/27 07:55:46;;;;;;;;;6.00;5.00;;;;;22.41;82.89;101382.69;5065551;28;45359;-83
2022/08/27 07:58:13;;;;;;;;;6.50;5.75;;;;;22.45;82.30;101383.59;5071929;28;45297;-84
2022/08/27 08:00:43;;;;;;;;;6.00;5.00;;;;;22.49;82.22;101389.75;5065456;28;45410;-82
2022/08/27 08:03:10;;;;;;;;;6.00;4.00;;;;;22.46;82.26;101385.34;5058938;28;45342;-80
2022/08/27 08:05:43;;;;;;;;;1.00;1.00;;;;;22.48;82.73;101395.91;5059201;28;45477;-79
2022/08/27 08:08:10;;;;;;;;;4.25;4.00;;;;;22.46;82.39;101388.00;5059413;28;45343;-82
2022/08/27 08:10:37;;;;;;;;;5.25;4.50;;;;;22.50;82.31;101392.44;5059901;28;45469;-85
2022/08/27 08:13:04;;;;;;;;;5.00;5.00;;;;;22.52;82.04;101395.94;5057874;28;45273;-85
2022/08/27 08:15:31;;;;;;;;;6.00;5.00;;;;;22.54;81.95;101390.69;5059673;28;45280;-79
2022/08/27 08:17:57;;;;;;;;;6.50;4.25;;;;;22.53;81.98;101388.91;5064121;28;45346;-79
2022/08/27 08:20:23;;;;;;;;;5.50;5.25;;;;;22.58;84.41;101403.00;5089599;27;45489;-83
2022/08/27 08:22:49;;;;;;;;;4.00;4.00;;;;;22.61;82.12;101394.22;5074117;27;45579;-80
2022/08/27 08:25:15;;;;;;;;;5.25;4.00;;;;;22.55;81.64;101392.44;5057982;28;45486;-81
2022/08/27 08:27:42;;;;;;;;;6.50;4.00;;;;;22.51;81.60;101404.75;5057871;28;45755;-82
2022/08/27 08:30:09;;;;;;;;;2.75;2.75;;;;;22.52;81.92;101397.69;5058217;28;45562;-82
2022/08/27 08:32:35;;;;;;;;;3.00;3.00;;;;;22.61;81.03;101403.00;5058678;28;47319;-81
2022/08/27 08:35:00;;;;;;;;;4.25;3.00;;;;;22.63;80.75;101400.38;5057170;28;45450;-78
2022/08/27 08:37:26;;;;;;;;;6.00;6.00;;;;;22.69;80.44;101400.41;5057164;28;46768;-83
2022/08/27 08:39:53;;;;;;;;;5.00;4.00;;;;;22.73;79.58;101400.44;5056937;28;45574;-83
2022/08/27 08:42:40;;;;;;;;;5.25;4.25;;;;;22.78;78.40;101399.56;5057412;28;45413;-82
2022/08/27 08:45:07;;;;;;;;;5.75;4.00;;;;;22.79;77.85;101403.94;5059048;28;45567;-80
2022/08/27 08:47:45;;;;;;;;;4.00;3.25;;;;;22.78;77.23;101394.28;5044198;28;45688;-80
2022/08/27 08:50:29;;;;;;;;;6.25;4.25;;;;;22.76;76.14;101401.31;5041080;28;45260;-79
2022/08/27 08:53:09;;;;;;;;;5.00;5.00;;;;;22.76;76.88;101394.28;5038941;28;47716;-79
2022/08/27 08:55:47;;;;;;;;;3.50;2.00;;;;;22.75;78.23;101396.91;5060533;28;45591;-78
2022/08/27 08:58:49;;;;;;;;;4.50;4.00;;;;;22.79;78.22;101398.66;5057407;28;45365;-80
2022/08/27 09:01:19;;;;;;;;;2.50;2.50;;;;;22.77;75.59;101400.44;5057689;28;45235;-81
2022/08/27 09:04:07;;;;;;;;;4.00;2.00;;;;;22.76;74.64;101394.28;5057308;28;45456;-79
2022/08/27 09:06:47;;;;;;;;;4.50;4.00;;;;;22.75;74.47;101386.34;5057361;28;45217;-79
2022/08/27 09:09:29;;;;;;;;;4.50;3.00;;;;;22.73;73.43;101389.00;5039060;28;45448;-81
2022/08/27 09:12:29;;;;;;;;;3.25;3.25;;;;;22.81;72.30;101386.34;5059306;28;45459;-78
2022/08/27 09:15:11;;;;;;;;;3.50;3.50;;;;;22.89;72.73;101400.50;5044058;28;46006;-80
2022/08/27 09:17:37;;;;;;;;;3.00;3.00;;;;;22.91;71.73;101403.13;5057938;28;45708;-78
2022/08/27 09:20:04;;;;;;;;;5.00;5.00;;;;;22.90;72.20;101402.22;5056063;28;45412;-79
2022/08/27 09:23:10;;;;;;;;;3.00;3.00;;;;;22.97;71.58;101408.41;5057592;28;45457;-80
2022/08/27 09:25:41;;;;;;;;;2.00;2.00;;;;;23.02;72.01;101396.97;5055904;28;45630;-79
2022/08/27 09:31:08;;;;;;;;;6.75;3.50;;;;;23.11;69.49;101396.13;5057186;28;45441;-79
2022/08/27 09:33:42;;;;;;;;;3.50;3.50;;;;;23.12;67.89;101395.25;5057466;28;45489;-79
2022/08/27 09:36:11;;;;;;;;;6.00;4.00;;;;;23.11;68.16;101389.97;5059081;28;46265;-79
2022/08/27 09:38:41;;;;;;;;;4.00;4.00;;;;;23.17;68.99;101398.78;5059074;28;45473;-80
2022/08/27 09:41:15;;;;;;;;;5.00;3.00;;;;;23.22;68.79;101400.59;5060398;28;45347;-80
2022/08/27 09:43:42;;;;;;;;;3.50;3.50;;;;;23.24;67.72;101394.41;5057134;28;45264;-81
2022/08/27 09:46:24;;;;;;;;;3.25;3.00;;;;;23.19;65.15;101404.97;5055107;28;47997;-80
2022/08/27 09:48:50;;;;;;;;;3.50;3.00;;;;;23.23;64.46;101405.00;5056545;28;45627;-80
2022/08/27 09:51:20;;;;;;;;;3.00;3.00;;;;;23.22;64.19;101404.09;5056421;28;45362;-80
2022/08/27 09:53:49;;;;;;;;;6.75;4.00;;;;;23.25;65.51;101397.97;5056327;28;45574;-80
2022/08/27 09:56:36;;;;;;;;;5.25;4.00;;;;;23.30;66.75;101401.47;5056262;28;46059;-80
2022/08/27 09:59:40;;;;;;;;;3.75;2.25;;;;;23.36;65.16;101400.59;5043995;28;45572;-79
2022/08/27 10:02:20;;;;;;;;;3.50;3.50;;;;;23.33;64.92;101399.72;5050166;28;45419;-80
2022/08/27 10:04:52;;;;;;;;;4.00;3.00;;;;;23.38;65.22;101391.78;5058347;28;45767;-79
2022/08/27 10:07:27;;;;;;;;;4.00;3.00;;;;;23.46;64.01;101390.06;5063866;28;45345;-79
2022/08/27 10:10:20;;;;;;;;;4.50;2.75;;;;;23.53;63.75;101395.31;5056733;28;45334;-80
2022/08/27 10:12:54;;;;;;;;;4.75;3.75;;;;;23.57;64.81;101394.47;5056343;28;45364;-78
2022/08/27 10:15:22;;;;;;;;;4.25;3.25;;;;;23.62;64.78;101396.22;5038457;28;45370;-79
2022/08/27 10:18:10;;;;;;;;;3.00;3.00;;;;;23.68;63.71;101390.06;5060233;28;45392;-79
2022/08/27 10:20:57;;;;;;;;;3.75;3.75;;;;;23.64;63.65;101397.09;5056268;28;45392;-79
2022/08/27 10:23:34;;;;;;;;;4.75;4.00;;;;;23.68;64.07;101402.38;5056024;28;45348;-79
2022/08/27 10:26:11;;;;;;;;;3.75;3.50;;;;;23.69;61.82;101390.91;5056195;28;45437;-79
2022/08/27 10:28:59;;;;;;;;;3.00;3.00;;;;;23.68;60.89;101392.69;5058501;28;45552;-79
2022/08/27 10:31:27;;;;;;;;;4.00;4.00;;;;;23.68;60.62;101383.88;5060929;28;45232;-80
2022/08/27 10:34:25;;;;;;;;;3.50;3.00;;;;;23.64;60.86;101385.63;5038552;28;45501;-81
2022/08/27 10:37:01;;;;;;;;;3.75;3.00;;;;;23.67;59.23;101383.00;5055082;28;45232;-79
2022/08/27 10:39:59;;;;;;;;;4.00;4.00;;;;;23.65;59.46;101382.13;5056349;28;46771;-79
2022/08/27 10:42:33;;;;;;;;;3.75;3.50;;;;;23.65;59.57;101375.06;5055826;28;45284;-79
2022/08/27 10:45:07;;;;;;;;;4.00;3.25;;;;;23.72;58.43;101390.94;5038686;28;45278;-80
2022/08/27 10:48:00;;;;;;;;;4.75;3.00;;;;;23.71;54.57;101379.44;5056106;28;45417;-78
2022/08/27 10:50:49;;;;;;;;;4.00;4.00;;;;;23.77;54.48;101376.81;5056331;28;45390;-79
2022/08/27 10:53:42;;;;;;;;;7.00;4.50;;;;;23.76;55.60;101369.78;5055547;28;45382;-79
2022/08/27 10:56:25;;;;;;;;;3.50;3.00;;;;;23.82;55.83;101379.47;5056826;28;45165;-80
2022/08/27 10:59:01;;;;;;;;;4.00;3.00;;;;;23.87;56.24;101374.16;5056899;28;45410;-81
2022/08/27 11:01:49;;;;;;;;;3.75;3.00;;;;;23.94;55.86;101368.88;5057496;28;45913;-84
2022/08/27 11:04:24;;;;;;;;;5.00;4.00;;;;;24.05;55.63;101368.00;5057959;28;45629;-85
2022/08/27 11:07:04;;;;;;;;;3.50;3.50;;;;;24.10;55.73;101364.47;5034974;28;45408;-83
2022/08/27 11:09:52;;;;;;;;;6.00;6.00;;;;;24.15;54.93;101360.91;5043014;28;45629;-81
2022/08/27 11:12:26;;;;;;;;;4.25;3.25;;;;;24.22;57.54;101360.88;5059832;28;46556;-82
2022/08/27 11:15:07;;;;;;;;;3.75;2.50;;;;;24.26;56.95;101356.44;5058418;28;45510;-83
2022/08/27 11:17:50;;;;;;;;;5.75;4.50;;;;;24.30;57.48;101350.28;5058713;28;45383;-84
2022/08/27 11:20:20;;;;;;;;;5.25;5.25;;;;;24.29;56.90;101355.59;5046764;28;45375;-83
2022/08/27 11:22:52;;;;;;;;;4.25;4.00;;;;;24.27;56.55;101353.81;5044631;28;47048;-82
2022/08/27 11:25:20;;;;;;;;;4.00;4.00;;;;;24.30;55.30;101347.63;5065334;28;45391;-82
2022/08/27 11:27:52;;;;;;;;;3.50;3.50;;;;;24.31;57.26;101345.84;5056521;28;45340;-83
2022/08/27 11:30:42;;;;;;;;;4.50;3.75;;;;;24.27;54.18;101342.34;5058166;28;45390;-84
2022/08/27 11:33:24;;;;;;;;;4.75;4.75;;;;;24.31;55.65;101343.19;5059005;28;46192;-86
2022/08/27 11:36:08;;;;;;;;;2.25;2.25;;;;;24.40;53.51;101344.06;5058996;28;45807;-84
2022/08/27 11:39:02;;;;;;;;;4.00;3.00;;;;;24.48;55.16;101346.69;5058234;28;45505;-89
2022/08/27 11:41:37;;;;;;;;;4.00;4.00;;;;;24.50;55.71;101336.97;5041260;28;45359;-81
2022/08/27 11:44:03;;;;;;;;;4.00;3.00;;;;;24.61;55.48;101333.38;5055721;28;45527;-80
2022/08/27 11:46:56;;;;;;;;;2.50;2.50;;;;;24.68;55.29;101328.06;5059697;28;45415;-84